Archival Weather

Snohomish County (Paine Fld)

Everett, Washington (KPAE)

Report from: Saturday, November 11, 2023 10:51 PM PST
Current time: Monday, June 17, 2024 12:01 AM PDT

Current weather – Weather history – Daily summaries
Weather forecast

Temperature9.0°C (48.2°F)
Wind chill8.0°C (46.4°F)
Dew point6.0°C (42.8°F)
Winds 4 kts (2.1 m/s, 4.6 mph) South (170°)
Visibility10 mi. (16.1 km)
Clouds Scattered clouds 1,700 ft. (518 m)
Ceiling: Broken clouds 2,200 ft. (671 m)
Altimeter30.11 in.Hg (1020 mB)
Relative humidity81 %
Density altitude-800 ft. (-244 m)
Remarks Fully automated report
Automated weather observing station with precipitation discriminator
Flight conditions Marginal Visual Meteorological Conditions
Raw dataKPAE 120651Z AUTO 17004KT 10SM SCT017 BKN022 09/06 A3011 RMK AO2
An error has occurred. This application may no longer respond until reloaded. Reload 🗙